Time;durP1;ratioP1;P1;durP2;ratioP2;P2;SDS_P1;SDS_P2;PMS_P1;PMS_P2;Temp;Humidity;BMP_temperature;BMP_pressure;BME280_temperature;BME280_humidity;BME280_pressure;Samples;Min_cycle;Max_cycle;Signal;HPM_P1;HPM_P2
2022/09/04 00:02:20;;;;;;;15.97;11.50;;;17.40;99.90;;;;;;5079945;28;20468;-67
2022/09/04 00:04:57;;;;;;;15.57;10.93;;;17.40;99.90;;;;;;5083385;28;20486;-67
2022/09/04 00:07:29;;;;;;;14.83;10.83;;;17.40;99.90;;;;;;5078549;28;20465;-68
2022/09/04 00:10:10;;;;;;;13.70;11.30;;;17.30;99.90;;;;;;5086003;28;20474;-67
2022/09/04 00:12:43;;;;;;;12.63;11.47;;;17.30;99.90;;;;;;5085523;28;20454;-67
2022/09/04 00:15:13;;;;;;;12.30;11.00;;;17.30;99.90;;;;;;5084728;28;20540;-68
2022/09/04 00:17:50;;;;;;;14.33;11.00;;;17.30;99.90;;;;;;5084323;28;20469;-67
2022/09/04 00:20:27;;;;;;;11.57;10.30;;;17.30;99.90;;;;;;5077396;28;20529;-66
2022/09/04 00:23:01;;;;;;;13.33;11.93;;;17.30;99.90;;;;;;5073903;28;20981;-68
2022/09/04 00:25:37;;;;;;;16.03;11.37;;;17.30;99.90;;;;;;5081574;28;20492;-67
2022/09/04 00:28:10;;;;;;;13.43;12.13;;;17.30;99.90;;;;;;5082981;28;20516;-67
2022/09/04 00:30:49;;;;;;;12.90;11.67;;;17.30;99.90;;;;;;5075975;28;20443;-68
2022/09/04 00:33:22;;;;;;;13.70;11.20;;;17.30;99.90;;;;;;5078953;28;20466;-67
2022/09/04 00:35:55;;;;;;;13.83;12.07;;;17.30;99.90;;;;;;5076911;28;20470;-68
2022/09/04 00:38:33;;;;;;;17.63;12.60;;;17.30;99.90;;;;;;5078923;28;20823;-66
2022/09/04 00:41:12;;;;;;;14.90;11.80;;;17.30;99.90;;;;;;5080603;28;20961;-67
2022/09/04 00:44:11;;;;;;;13.80;11.93;;;17.20;99.90;;;;;;5081193;28;20473;-67
2022/09/04 00:47:13;;;;;;;15.27;13.47;;;17.20;99.90;;;;;;5080345;28;20796;-68
2022/09/04 00:49:56;;;;;;;14.20;12.80;;;17.10;99.90;;;;;;5080926;28;20468;-67
2022/09/04 00:52:40;;;;;;;17.10;13.67;;;17.10;99.90;;;;;;5078817;28;20463;-66
2022/09/04 00:55:23;;;;;;;26.27;14.10;;;17.10;99.90;;;;;;5080776;28;20475;-67
2022/09/04 00:58:07;;;;;;;17.07;13.77;;;17.10;99.90;;;;;;5084209;28;20461;-67
2022/09/04 01:00:35;;;;;;;21.20;12.70;;;17.00;99.90;;;;;;5083801;28;20516;-67
2022/09/04 01:03:25;;;;;;;17.30;13.70;;;17.00;99.90;;;;;;5083448;28;20503;-67
2022/09/04 01:06:08;;;;;;;20.23;14.30;;;17.00;99.90;;;;;;5036974;28;20466;-67
2022/09/04 01:08:56;;;;;;;15.23;13.73;;;17.00;99.90;;;;;;5083551;28;20466;-66
2022/09/04 01:11:37;;;;;;;19.37;12.60;;;17.00;99.90;;;;;;5082993;28;20508;-66
2022/09/04 01:14:12;;;;;;;17.57;13.17;;;17.00;99.90;;;;;;5079361;28;20568;-67
2022/09/04 01:16:46;;;;;;;20.87;13.27;;;17.00;99.90;;;;;;5066250;28;20534;-66
2022/09/04 01:19:29;;;;;;;23.43;12.70;;;16.90;99.90;;;;;;5062403;28;20450;-66
2022/09/04 01:22:23;;;;;;;15.50;12.50;;;16.90;99.90;;;;;;5062574;28;20470;-67
2022/09/04 01:25:10;;;;;;;17.07;12.10;;;17.00;99.90;;;;;;5053013;28;20495;-67
2022/09/04 01:27:46;;;;;;;16.87;12.80;;;17.00;99.90;;;;;;5053563;28;20462;-67
2022/09/04 01:30:16;;;;;;;18.27;12.77;;;16.90;99.90;;;;;;5058217;28;20462;-67
2022/09/04 01:32:53;;;;;;;16.30;12.83;;;16.90;99.90;;;;;;5064278;28;21000;-67
2022/09/04 01:35:30;;;;;;;16.57;12.40;;;16.80;99.90;;;;;;5064163;28;20552;-68
2022/09/04 01:38:06;;;;;;;22.17;13.90;;;16.80;99.90;;;;;;5053481;28;20819;-66
2022/09/04 01:40:44;;;;;;;22.07;14.53;;;16.70;99.90;;;;;;5058594;28;20461;-67
2022/09/04 01:43:16;;;;;;;18.03;13.60;;;16.70;99.90;;;;;;5059468;28;20533;-66
2022/09/04 01:46:04;;;;;;;15.20;13.07;;;16.70;99.90;;;;;;5060037;28;20553;-67
2022/09/04 01:48:41;;;;;;;19.40;13.20;;;16.70;99.90;;;;;;5060671;28;20939;-67
2022/09/04 01:51:16;;;;;;;24.13;14.93;;;16.70;99.90;;;;;;5061372;28;20474;-67
2022/09/04 01:53:49;;;;;;;22.90;12.83;;;16.70;99.90;;;;;;5065232;28;20484;-66
2022/09/04 01:56:21;;;;;;;17.07;13.63;;;16.60;99.90;;;;;;5062591;28;20505;-67
2022/09/04 01:58:56;;;;;;;16.87;13.37;;;16.60;99.90;;;;;;5057080;28;20467;-67
2022/09/04 02:01:31;;;;;;;22.43;13.17;;;16.60;99.90;;;;;;5058280;28;20479;-67
2022/09/04 02:04:06;;;;;;;22.07;13.20;;;16.60;99.90;;;;;;5056738;28;20466;-67
2022/09/04 02:06:46;;;;;;;15.43;13.57;;;16.50;99.90;;;;;;5061203;28;20459;-67
2022/09/04 02:09:27;;;;;;;16.40;13.60;;;16.50;99.90;;;;;;5061462;28;20931;-66
2022/09/04 02:12:08;;;;;;;14.83;13.53;;;16.50;99.90;;;;;;5063703;28;20827;-66
2022/09/04 02:14:48;;;;;;;15.10;13.50;;;16.40;99.90;;;;;;5058945;28;20463;-67
2022/09/04 02:17:24;;;;;;;15.70;12.57;;;16.40;99.90;;;;;;5054867;28;20982;-67
2022/09/04 02:20:03;;;;;;;17.20;13.20;;;16.40;99.90;;;;;;5055372;28;20477;-66
2022/09/04 02:22:38;;;;;;;16.70;12.10;;;16.40;99.90;;;;;;5054958;28;20457;-67
2022/09/04 02:25:16;;;;;;;15.20;13.30;;;16.30;99.90;;;;;;5048204;28;21004;-67
2022/09/04 02:27:54;;;;;;;17.27;12.40;;;16.30;99.90;;;;;;5056394;28;20474;-68
2022/09/04 02:30:23;;;;;;;15.37;13.37;;;16.30;99.90;;;;;;5056960;28;20463;-67
2022/09/04 02:33:06;;;;;;;15.90;12.87;;;16.20;99.90;;;;;;5054429;28;21052;-67
2022/09/04 02:35:40;;;;;;;14.60;13.30;;;16.20;99.90;;;;;;5058910;28;20486;-67
2022/09/04 02:38:21;;;;;;;14.80;13.30;;;16.10;99.90;;;;;;5058292;28;20466;-66
2022/09/04 02:40:52;;;;;;;14.93;13.63;;;16.10;99.90;;;;;;5056913;28;20469;-66
2022/09/04 02:43:31;;;;;;;14.33;13.00;;;16.10;99.90;;;;;;5054208;28;20481;-66
2022/09/04 02:46:07;;;;;;;15.00;13.53;;;16.00;99.90;;;;;;5052753;28;20485;-67
2022/09/04 02:48:47;;;;;;;14.40;12.63;;;16.00;99.90;;;;;;5054948;28;20491;-67
2022/09/04 02:51:23;;;;;;;14.83;13.27;;;16.00;99.90;;;;;;5061255;28;20845;-67
2022/09/04 02:54:03;;;;;;;27.57;14.70;;;16.00;99.90;;;;;;5053207;28;20463;-67
2022/09/04 02:56:42;;;;;;;18.27;16.30;;;15.90;99.90;;;;;;5054591;28;20467;-67
2022/09/04 02:59:28;;;;;;;17.90;13.27;;;15.80;99.90;;;;;;5052753;28;20459;-66
2022/09/04 03:01:58;;;;;;;15.20;13.77;;;15.60;99.90;;;;;;5057541;28;20456;-68
2022/09/04 03:04:30;;;;;;;17.17;14.27;;;15.50;99.90;;;;;;5051712;28;20990;-67
2022/09/04 03:07:06;;;;;;;15.20;13.87;;;15.50;99.90;;;;;;5062064;28;20490;-68
2022/09/04 03:09:41;;;;;;;18.50;15.20;;;15.40;99.90;;;;;;5055172;28;20537;-66
2022/09/04 03:12:25;;;;;;;18.03;14.20;;;15.30;99.90;;;;;;5057468;28;20458;-67
2022/09/04 03:15:00;;;;;;;16.07;14.47;;;15.20;99.90;;;;;;5054905;28;20477;-66
2022/09/04 03:17:35;;;;;;;17.83;14.90;;;15.10;99.90;;;;;;5077153;28;20823;-67
2022/09/04 03:20:08;;;;;;;16.07;14.47;;;15.00;99.90;;;;;;5075266;28;20561;-66
2022/09/04 03:22:45;;;;;;;22.80;15.90;;;14.90;99.90;;;;;;5073744;28;20942;-67
2022/09/04 03:25:38;;;;;;;22.67;15.60;;;14.90;99.90;;;;;;5072869;28;20478;-66
2022/09/04 03:28:08;;;;;;;15.70;14.20;;;14.80;99.90;;;;;;5079571;28;20465;-66
2022/09/04 03:30:38;;;;;;;17.27;14.90;;;14.80;99.90;;;;;;5075052;28;21044;-67
2022/09/04 03:33:15;;;;;;;16.10;14.40;;;14.80;99.90;;;;;;5080661;28;20461;-67
2022/09/04 03:35:50;;;;;;;16.17;14.77;;;14.70;99.90;;;;;;5072235;28;20471;-66
2022/09/04 03:38:23;;;;;;;16.70;14.43;;;14.70;99.90;;;;;;5073288;28;20489;-66
2022/09/04 03:40:59;;;;;;;15.40;14.00;;;14.70;99.90;;;;;;5072439;28;20962;-66
2022/09/04 03:43:50;;;;;;;16.37;14.80;;;14.70;99.90;;;;;;5074032;28;20462;-67
2022/09/04 03:46:26;;;;;;;15.70;14.43;;;14.70;99.90;;;;;;5070578;28;20544;-67
2022/09/04 03:49:09;;;;;;;16.73;15.33;;;14.80;99.90;;;;;;5071518;28;20458;-67
2022/09/04 03:51:51;;;;;;;17.00;15.30;;;14.80;99.90;;;;;;5069504;28;20467;-66
2022/09/04 03:54:36;;;;;;;16.70;15.33;;;14.80;99.90;;;;;;5077428;28;20454;-68
2022/09/04 03:57:18;;;;;;;15.67;14.17;;;14.70;99.90;;;;;;5067545;28;20523;-67
2022/09/04 04:00:02;;;;;;;15.30;14.13;;;14.80;99.90;;;;;;5073701;28;20455;-66
2022/09/04 04:02:37;;;;;;;17.37;13.47;;;14.70;99.90;;;;;;5058731;28;20463;-66
2022/09/04 04:05:28;;;;;;;15.47;14.20;;;14.60;99.90;;;;;;5043872;28;21220;-67
2022/09/04 04:08:06;;;;;;;16.73;13.33;;;14.60;99.90;;;;;;5044433;28;20467;-66
2022/09/04 04:10:44;;;;;;;15.73;14.20;;;14.60;99.90;;;;;;5044490;28;20978;-67
2022/09/04 04:13:30;;;;;;;16.13;14.53;;;14.50;99.90;;;;;;5045707;28;20467;-67
2022/09/04 04:16:12;;;;;;;20.03;15.20;;;14.50;99.90;;;;;;5045401;28;20986;-67
2022/09/04 04:19:09;;;;;;;16.70;15.13;;;14.50;99.90;;;;;;5046514;28;21011;-68
2022/09/04 04:21:54;;;;;;;15.57;14.23;;;14.40;99.90;;;;;;5045531;28;20549;-68
2022/09/04 04:24:37;;;;;;;15.57;14.27;;;14.40;99.90;;;;;;5045954;28;20966;-67
2022/09/04 04:27:15;;;;;;;18.90;16.27;;;14.40;99.90;;;;;;5047285;28;22579;-67
2022/09/04 04:30:02;;;;;;;17.20;15.33;;;14.40;99.90;;;;;;5050186;28;20498;-66
2022/09/04 04:32:49;;;;;;;23.93;16.90;;;14.40;99.90;;;;;;5049557;28;22304;-68
2022/09/04 04:35:27;;;;;;;16.77;15.03;;;14.40;99.90;;;;;;5050129;28;20470;-67
2022/09/04 04:38:08;;;;;;;16.17;14.90;;;14.30;99.90;;;;;;5049398;28;20465;-68
2022/09/04 04:41:02;;;;;;;16.30;15.10;;;14.20;99.90;;;;;;5048749;28;20456;-67
2022/09/04 04:43:38;;;;;;;17.07;15.40;;;14.20;99.90;;;;;;5049956;28;20478;-67
2022/09/04 04:46:11;;;;;;;16.40;15.03;;;14.20;99.90;;;;;;5049100;28;21231;-67
2022/09/04 04:48:59;;;;;;;16.30;14.80;;;14.10;99.90;;;;;;5049256;28;20989;-66
2022/09/04 04:51:40;;;;;;;13.97;13.00;;;14.20;99.90;;;;;;5048994;28;20473;-66
2022/09/04 04:54:23;;;;;;;17.77;16.07;;;14.20;99.90;;;;;;5048702;28;20545;-68
2022/09/04 04:56:55;;;;;;;15.90;14.50;;;14.20;99.90;;;;;;5049660;28;20459;-69
2022/09/04 04:59:27;;;;;;;16.47;14.47;;;14.10;99.90;;;;;;5049980;28;20942;-68
2022/09/04 05:02:03;;;;;;;17.50;15.67;;;14.10;99.90;;;;;;5048460;28;20471;-69
2022/09/04 05:04:41;;;;;;;18.80;17.20;;;14.10;99.90;;;;;;5049219;28;20582;-69
2022/09/04 05:07:19;;;;;;;17.27;15.67;;;14.10;99.90;;;;;;5047926;28;20497;-68
2022/09/04 05:09:53;;;;;;;16.60;15.20;;;14.20;99.90;;;;;;5049890;28;20984;-68
2022/09/04 05:12:28;;;;;;;15.60;14.47;;;14.20;99.90;;;;;;5047742;28;20470;-68
2022/09/04 05:15:01;;;;;;;17.90;14.83;;;14.10;99.90;;;;;;5048121;28;20471;-67
2022/09/04 05:17:36;;;;;;;16.20;14.60;;;14.20;99.90;;;;;;5049305;28;20482;-69
2022/09/04 05:20:22;;;;;;;15.27;14.13;;;14.20;99.90;;;;;;5047254;28;20476;-69
2022/09/04 05:22:59;;;;;;;16.90;15.27;;;14.20;99.90;;;;;;5048217;28;20818;-68
2022/09/04 05:25:36;;;;;;;16.70;15.20;;;14.30;99.90;;;;;;5049600;28;20493;-69
2022/09/04 05:28:12;;;;;;;16.53;15.03;;;14.30;99.90;;;;;;5050103;28;20459;-67
2022/09/04 05:30:47;;;;;;;23.40;15.00;;;14.40;99.90;;;;;;5048631;28;20834;-69
2022/09/04 05:33:19;;;;;;;16.60;15.10;;;14.50;99.90;;;;;;5047262;28;21143;-68
2022/09/04 05:35:53;;;;;;;29.73;16.20;;;14.60;99.90;;;;;;5045463;28;20463;-68
2022/09/04 05:38:28;;;;;;;18.77;15.73;;;14.60;99.90;;;;;;5045936;28;20540;-68
2022/09/04 05:41:05;;;;;;;18.03;16.13;;;14.70;99.90;;;;;;5046694;28;20458;-69
2022/09/04 05:43:59;;;;;;;17.60;15.23;;;14.80;99.90;;;;;;5045557;28;21021;-68
2022/09/04 05:46:41;;;;;;;16.77;14.83;;;14.90;99.90;;;;;;5046890;28;20996;-69
2022/09/04 05:49:18;;;;;;;17.07;13.57;;;15.00;99.90;;;;;;5066205;28;20538;-67
2022/09/04 05:52:21;;;;;;;18.77;14.50;;;15.10;99.90;;;;;;5054844;28;20469;-70
2022/09/04 05:55:30;;;;;;;21.53;16.53;;;15.20;99.90;;;;;;5044231;28;20552;-66
2022/09/04 05:58:13;;;;;;;21.20;15.67;;;15.40;99.90;;;;;;5027219;28;21472;-67
2022/09/04 06:00:48;;;;;;;31.83;15.80;;;15.50;99.90;;;;;;5045858;28;21036;-65
2022/09/04 06:03:37;;;;;;;30.83;14.17;;;15.60;99.90;;;;;;5046659;28;20904;-67
2022/09/04 06:06:13;;;;;;;26.83;16.23;;;15.70;99.90;;;;;;5044139;28;20549;-67
2022/09/04 06:09:13;;;;;;;28.50;15.47;;;15.90;99.90;;;;;;5043394;28;20465;-66
2022/09/04 06:12:05;;;;;;;24.93;15.27;;;16.00;99.90;;;;;;5045681;28;20487;-67
2022/09/04 06:15:04;;;;;;;20.00;14.43;;;16.20;99.90;;;;;;5043986;28;20777;-67
2022/09/04 06:17:49;;;;;;;19.67;15.20;;;16.40;99.90;;;;;;5028678;28;20474;-66
2022/09/04 06:20:30;;;;;;;16.27;14.53;;;16.60;99.90;;;;;;5044907;28;20454;-67
2022/09/04 06:23:20;;;;;;;26.97;14.83;;;16.60;99.90;;;;;;5043790;28;20465;-66
2022/09/04 06:26:11;;;;;;;25.50;15.27;;;16.80;99.90;;;;;;5043178;28;20624;-66
2022/09/04 06:28:56;;;;;;;23.27;15.37;;;17.00;99.90;;;;;;5045698;28;20965;-68
2022/09/04 06:31:49;;;;;;;15.83;14.10;;;17.20;99.90;;;;;;5043578;28;20454;-67
2022/09/04 06:34:28;;;;;;;21.53;14.43;;;17.40;99.90;;;;;;5045350;28;20466;-67
2022/09/04 06:37:10;;;;;;;25.53;13.13;;;17.60;99.90;;;;;;5044324;28;20485;-66
2022/09/04 06:39:56;;;;;;;27.80;12.73;;;17.80;99.90;;;;;;5045857;28;20676;-67
2022/09/04 06:42:40;;;;;;;34.00;12.30;;;17.90;99.90;;;;;;5045414;28;21161;-67
2022/09/04 06:45:18;;;;;;;17.83;13.10;;;18.00;99.90;;;;;;5047030;28;20451;-67
2022/09/04 06:47:59;;;;;;;20.87;12.43;;;18.20;99.90;;;;;;5045933;28;20536;-67
2022/09/04 06:50:35;;;;;;;16.47;12.63;;;18.20;99.90;;;;;;5057573;28;20466;-67
2022/09/04 06:53:17;;;;;;;16.17;11.63;;;18.20;99.90;;;;;;5060248;28;20481;-67
2022/09/04 06:56:03;;;;;;;17.37;11.93;;;18.20;99.90;;;;;;5045193;28;20459;-67
2022/09/04 06:58:58;;;;;;;20.30;12.13;;;18.30;99.90;;;;;;5044334;28;20497;-67
2022/09/04 07:01:38;;;;;;;11.77;10.60;;;18.40;99.90;;;;;;5044731;28;20926;-67
2022/09/04 07:04:16;;;;;;;14.43;11.33;;;18.50;99.90;;;;;;5043845;28;20773;-68
2022/09/04 07:06:58;;;;;;;28.03;13.23;;;18.70;99.90;;;;;;5043908;28;20494;-67
2022/09/04 07:09:28;;;;;;;15.17;12.17;;;18.90;99.90;;;;;;5043964;28;20542;-67
2022/09/04 07:12:37;;;;;;;18.10;12.30;;;19.00;99.90;;;;;;5043860;28;20466;-66
2022/09/04 07:15:40;;;;;;;20.23;12.77;;;19.10;99.90;;;;;;5044200;28;20500;-68
2022/09/04 07:18:23;;;;;;;20.07;12.80;;;19.20;99.90;;;;;;5043295;28;22421;-68
2022/09/04 07:21:01;;;;;;;14.70;11.97;;;19.30;99.90;;;;;;5046780;28;20973;-66
2022/09/04 07:23:40;;;;;;;13.03;11.70;;;19.40;99.90;;;;;;5042419;28;20474;-68
2022/09/04 07:26:19;;;;;;;16.00;12.30;;;19.60;99.90;;;;;;5042390;28;20486;-68
2022/09/04 07:28:59;;;;;;;13.13;11.90;;;19.70;99.90;;;;;;5044900;28;20450;-66
2022/09/04 07:31:35;;;;;;;19.17;13.53;;;20.00;99.90;;;;;;5046157;28;20455;-68
2022/09/04 07:34:14;;;;;;;15.80;11.30;;;20.10;99.90;;;;;;5045908;28;20466;-68
2022/09/04 07:36:50;;;;;;;14.07;11.60;;;20.10;99.90;;;;;;5046379;28;20462;-68
2022/09/04 07:39:25;;;;;;;18.77;12.43;;;20.20;99.90;;;;;;5045860;28;21042;-67
2022/09/04 07:41:59;;;;;;;13.33;11.17;;;20.40;99.90;;;;;;5044635;28;20462;-68
2022/09/04 07:44:32;;;;;;;13.63;10.70;;;20.50;99.90;;;;;;5043510;28;20506;-68
2022/09/04 07:47:12;;;;;;;12.33;10.97;;;20.60;99.90;;;;;;5047303;28;20617;-68
2022/09/04 07:49:48;;;;;;;13.83;12.13;;;20.60;99.90;;;;;;5066613;28;20546;-67
2022/09/04 07:52:30;;;;;;;21.17;10.63;;;20.80;99.90;;;;;;5071153;28;20458;-68
2022/09/04 07:55:08;;;;;;;12.87;11.60;;;21.00;99.90;;;;;;5043770;28;20886;-68
2022/09/04 07:58:02;;;;;;;12.90;11.33;;;21.30;99.90;;;;;;5044353;28;21021;-67
2022/09/04 08:00:36;;;;;;;17.70;11.90;;;21.40;99.90;;;;;;5042872;28;20491;-68
2022/09/04 08:03:28;;;;;;;18.97;11.83;;;21.40;99.90;;;;;;5045132;28;20506;-68
2022/09/04 08:06:02;;;;;;;16.70;11.73;;;21.60;99.90;;;;;;5047105;28;20500;-67
2022/09/04 08:09:06;;;;;;;25.80;12.33;;;21.70;99.90;;;;;;5047476;28;22375;-68
2022/09/04 08:12:04;;;;;;;16.23;12.60;;;21.90;99.90;;;;;;5048301;28;20454;-67
2022/09/04 08:14:49;;;;;;;14.87;12.37;;;22.20;99.90;;;;;;5048868;28;21134;-67
2022/09/04 08:17:49;;;;;;;16.33;12.20;;;22.30;99.90;;;;;;5049008;28;20455;-68
2022/09/04 08:20:27;;;;;;;17.37;11.40;;;22.30;99.90;;;;;;5069984;28;20490;-67
2022/09/04 08:23:02;;;;;;;13.60;11.60;;;22.40;99.90;;;;;;5072707;28;20462;-67
2022/09/04 08:25:43;;;;;;;20.60;13.10;;;22.50;99.90;;;;;;5075595;28;20465;-67
2022/09/04 08:28:34;;;;;;;13.87;12.23;;;22.50;99.90;;;;;;5069671;28;20466;-68
2022/09/04 08:31:07;;;;;;;18.73;12.43;;;22.70;99.90;;;;;;5050819;28;20481;-69
2022/09/04 08:34:00;;;;;;;11.63;11.00;;;22.90;99.90;;;;;;5050404;28;21069;-68
2022/09/04 08:36:35;;;;;;;13.30;11.30;;;23.10;99.90;;;;;;5050497;28;20520;-68
2022/09/04 08:39:08;;;;;;;11.37;10.80;;;23.30;99.90;;;;;;5051290;28;20972;-68
2022/09/04 08:42:06;;;;;;;12.10;11.00;;;23.50;99.90;;;;;;5050220;28;20466;-68
2022/09/04 08:45:07;;;;;;;14.70;11.77;;;23.40;99.90;;;;;;5050529;28;20751;-67
2022/09/04 08:48:17;;;;;;;12.23;11.07;;;23.50;99.90;;;;;;5049901;28;20522;-67
2022/09/04 08:51:16;;;;;;;11.70;10.90;;;23.70;99.90;;;;;;5049951;28;20565;-67
2022/09/04 08:54:14;;;;;;;10.83;10.23;;;23.80;99.90;;;;;;5050383;28;20493;-68
2022/09/04 08:56:49;;;;;;;11.77;11.00;;;24.00;99.90;;;;;;5024569;28;20478;-69
2022/09/04 08:59:48;;;;;;;10.67;10.13;;;23.90;99.90;;;;;;5050308;28;21018;-67
2022/09/04 09:02:58;;;;;;;11.23;10.47;;;23.90;99.90;;;;;;5049649;28;20536;-68
2022/09/04 09:06:27;;;;;;;10.43;9.93;;;24.20;99.90;;;;;;5049774;28;20840;-68
2022/09/04 09:09:24;;;;;;;10.60;10.10;;;24.40;99.90;;;;;;5046254;28;20462;-68
2022/09/04 09:12:35;;;;;;;12.60;11.73;;;24.80;99.90;;;;;;5050271;28;20462;-68
2022/09/04 09:15:28;;;;;;;11.00;10.37;;;25.60;99.90;;;;;;5041150;28;20984;-68
2022/09/04 09:18:22;;;;;;;11.70;11.00;;;26.50;99.90;;;;;;5050901;28;20968;-69
2022/09/04 09:20:58;;;;;;;11.23;10.70;;;27.20;99.90;;;;;;5051201;28;20777;-68
2022/09/04 09:23:37;;;;;;;11.07;10.57;;;27.40;99.90;;;;;;5049605;28;20520;-69
2022/09/04 09:26:25;;;;;;;10.83;10.40;;;28.50;99.90;;;;;;5050422;28;20451;-70
2022/09/04 09:29:32;;;;;;;12.17;11.57;;;29.10;99.90;;;;;;5051128;28;20561;-68
2022/09/04 09:32:29;;;;;;;11.10;10.63;;;29.80;99.90;;;;;;5049924;28;20780;-69
2022/09/04 09:35:23;;;;;;;12.13;11.40;;;29.70;99.90;;;;;;5048733;28;20520;-69
2022/09/04 09:38:13;;;;;;;12.20;11.67;;;29.50;99.90;;;;;;5048224;28;20459;-68
2022/09/04 09:41:32;;;;;;;12.57;11.97;;;29.70;99.90;;;;;;5046236;28;21020;-68
2022/09/04 09:44:27;;;;;;;12.10;11.60;;;29.80;99.40;;;;;;5010699;28;20460;-68
2022/09/04 09:47:30;;;;;;;12.47;11.80;;;29.80;99.60;;;;;;5050184;28;20490;-68
2022/09/04 09:50:30;;;;;;;12.17;11.67;;;29.90;99.10;;;;;;5079204;28;20465;-68
2022/09/04 09:53:27;;;;;;;11.37;10.87;;;29.40;99.10;;;;;;5054781;28;20473;-69
2022/09/04 09:56:32;;;;;;;13.30;12.10;;;29.50;99.30;;;;;;5047462;28;20478;-69
2022/09/04 09:59:51;;;;;;;12.43;11.63;;;29.70;99.00;;;;;;5047081;28;20489;-68
2022/09/04 10:02:54;;;;;;;13.00;12.30;;;30.30;97.20;;;;;;5049082;28;20466;-69
2022/09/04 10:05:54;;;;;;;13.13;12.43;;;30.50;97.40;;;;;;5048198;28;20450;-69
2022/09/04 10:08:37;;;;;;;12.53;11.93;;;30.70;96.30;;;;;;5047214;28;20498;-68
2022/09/04 10:11:39;;;;;;;12.67;12.00;;;30.50;95.70;;;;;;5048131;28;21226;-68
2022/09/04 10:14:48;;;;;;;13.83;13.23;;;30.50;95.20;;;;;;5033583;28;20466;-68
2022/09/04 10:17:43;;;;;;;14.30;13.13;;;30.80;94.40;;;;;;4999327;28;20488;-69
2022/09/04 10:20:35;;;;;;;13.90;13.10;;;31.40;93.80;;;;;;5044429;28;20467;-69
2022/09/04 10:23:36;;;;;;;13.23;12.63;;;31.80;92.30;;;;;;5042711;28;20931;-69
2022/09/04 10:26:40;;;;;;;12.40;11.90;;;31.60;92.00;;;;;;5045798;28;20467;-68
2022/09/04 10:29:33;;;;;;;13.33;12.73;;;32.00;91.10;;;;;;5047905;28;20462;-69
2022/09/04 10:32:34;;;;;;;12.23;11.70;;;31.90;90.20;;;;;;5048059;28;20811;-69
2022/09/04 10:35:19;;;;;;;12.90;12.30;;;31.30;90.30;;;;;;5047594;28;20458;-68
2022/09/04 10:38:20;;;;;;;11.90;11.30;;;31.30;90.60;;;;;;5069640;28;20465;-68
2022/09/04 10:41:08;;;;;;;13.60;13.00;;;30.70;90.90;;;;;;5074102;28;20461;-67
2022/09/04 10:44:04;;;;;;;13.03;12.40;;;31.20;89.00;;;;;;5070691;28;20469;-68
2022/09/04 10:46:41;;;;;;;13.13;11.93;;;31.30;89.10;;;;;;5047107;28;20463;-69
2022/09/04 10:49:35;;;;;;;12.30;11.80;;;31.60;86.80;;;;;;5048195;28;20470;-68
2022/09/04 10:52:20;;;;;;;11.90;11.40;;;31.70;87.20;;;;;;5047726;28;21128;-68
2022/09/04 10:55:13;;;;;;;11.80;11.30;;;32.20;83.20;;;;;;5048444;28;20471;-69
2022/09/04 10:58:00;;;;;;;12.47;11.97;;;32.70;79.90;;;;;;5046660;28;20771;-68
2022/09/04 11:00:35;;;;;;;11.70;11.10;;;32.90;79.00;;;;;;5047265;28;21086;-68
2022/09/04 11:03:39;;;;;;;11.07;10.40;;;32.30;76.80;;;;;;5046433;28;20499;-69
2022/09/04 11:06:36;;;;;;;12.60;12.10;;;32.30;75.80;;;;;;5047304;28;20468;-69
2022/09/04 11:09:13;;;;;;;12.50;12.00;;;33.20;71.80;;;;;;5046908;28;20472;-68
2022/09/04 11:12:08;;;;;;;13.10;12.40;;;33.90;69.70;;;;;;5045928;28;20545;-69
2022/09/04 11:14:56;;;;;;;11.93;11.47;;;33.90;68.20;;;;;;5046426;28;20953;-69
2022/09/04 11:17:53;;;;;;;13.10;12.50;;;33.10;68.50;;;;;;5046215;28;20983;-69
2022/09/04 11:20:56;;;;;;;13.07;12.47;;;33.00;67.10;;;;;;5046354;28;20467;-68
2022/09/04 11:23:59;;;;;;;13.10;12.50;;;31.70;68.20;;;;;;5046365;28;20543;-69
2022/09/04 11:27:15;;;;;;;12.13;11.63;;;30.80;71.10;;;;;;5047200;28;20873;-68
2022/09/04 11:30:04;;;;;;;12.60;12.10;;;31.30;71.20;;;;;;5047248;28;21120;-68
2022/09/04 11:32:56;;;;;;;13.30;12.70;;;31.90;69.90;;;;;;5046972;28;20447;-67
2022/09/04 11:36:10;;;;;;;13.60;12.50;;;32.80;65.20;;;;;;5037381;28;20465;-68
2022/09/04 11:38:56;;;;;;;12.20;11.70;;;32.40;63.90;;;;;;5069624;28;20465;-68
2022/09/04 11:41:55;;;;;;;11.37;10.90;;;32.30;63.20;;;;;;5072553;28;20465;-69
2022/09/04 11:44:47;;;;;;;12.20;11.70;;;32.70;62.70;;;;;;5051185;28;20466;-69
2022/09/04 11:47:42;;;;;;;12.33;11.83;;;33.50;63.30;;;;;;5049559;28;20502;-68
2022/09/04 11:50:25;;;;;;;11.97;11.50;;;33.60;60.10;;;;;;5050604;28;20548;-69
2022/09/04 11:53:13;;;;;;;12.07;11.47;;;34.10;59.50;;;;;;5050907;28;20501;-69
2022/09/04 11:56:12;;;;;;;11.90;11.40;;;34.60;57.00;;;;;;5051095;28;20812;-68
2022/09/04 11:59:11;;;;;;;12.00;11.50;;;33.90;57.00;;;;;;5051330;28;20790;-67
2022/09/04 12:01:59;;;;;;;12.40;11.63;;;33.70;56.70;;;;;;5046430;28;20481;-69
2022/09/04 12:04:41;;;;;;;12.40;11.80;;;34.10;55.10;;;;;;5050259;28;20460;-70
2022/09/04 12:07:18;;;;;;;12.90;12.30;;;34.50;53.10;;;;;;5051416;28;20490;-69
2022/09/04 12:10:07;;;;;;;11.50;10.90;;;34.60;52.40;;;;;;5049245;28;20478;-69
2022/09/04 12:13:01;;;;;;;11.20;10.70;;;34.40;51.00;;;;;;5041809;28;20474;-71
2022/09/04 12:16:03;;;;;;;11.60;11.10;;;34.40;51.70;;;;;;5050870;28;22463;-69
2022/09/04 12:19:09;;;;;;;12.53;12.03;;;34.60;50.10;;;;;;5049838;28;20450;-70
2022/09/04 12:22:18;;;;;;;12.13;11.63;;;35.20;49.50;;;;;;5039013;28;21074;-68
2022/09/04 12:25:27;;;;;;;12.60;12.00;;;34.70;48.40;;;;;;5030150;28;20465;-69
2022/09/04 12:28:33;;;;;;;12.73;12.23;;;34.00;48.10;;;;;;5050466;28;20530;-68
2022/09/04 12:31:12;;;;;;;12.77;11.80;;;33.90;47.80;;;;;;5050671;28;20466;-69
2022/09/04 12:34:09;;;;;;;11.30;10.80;;;32.80;49.10;;;;;;5049526;28;20451;-70
2022/09/04 12:37:05;;;;;;;12.10;11.60;;;33.10;49.20;;;;;;5046048;28;20579;-66
2022/09/04 12:40:15;;;;;;;13.83;13.03;;;33.70;48.30;;;;;;5050396;28;21367;-67
2022/09/04 12:42:56;;;;;;;12.93;12.23;;;33.70;47.90;;;;;;5041947;28;20518;-69
2022/09/04 12:45:35;;;;;;;13.83;13.10;;;33.50;48.00;;;;;;5049783;28;22287;-68
2022/09/04 12:48:10;;;;;;;13.30;12.60;;;33.20;48.90;;;;;;5062904;28;20778;-68
2022/09/04 12:50:45;;;;;;;11.50;11.00;;;33.00;48.50;;;;;;5081028;28;20454;-68
2022/09/04 12:53:29;;;;;;;12.30;11.60;;;32.80;49.40;;;;;;5070579;28;20457;-68
2022/09/04 12:56:04;;;;;;;13.20;12.37;;;33.30;49.70;;;;;;5049968;28;20548;-69
2022/09/04 12:58:47;;;;;;;12.47;11.80;;;33.90;48.20;;;;;;5049781;28;20961;-68
2022/09/04 13:01:23;;;;;;;13.33;12.33;;;33.80;47.80;;;;;;5049534;28;20570;-69
2022/09/04 13:04:00;;;;;;;12.47;11.97;;;33.00;48.70;;;;;;5049771;28;20459;-69
2022/09/04 13:06:37;;;;;;;13.87;12.90;;;33.00;48.40;;;;;;5049475;28;21000;-68
2022/09/04 13:09:12;;;;;;;13.70;12.60;;;32.80;48.50;;;;;;5049251;28;20528;-69
2022/09/04 13:11:48;;;;;;;12.13;11.60;;;32.80;48.40;;;;;;5050409;28;20482;-69
2022/09/04 13:14:43;;;;;;;11.80;11.30;;;33.00;49.10;;;;;;5048974;28;20478;-67
2022/09/04 13:17:22;;;;;;;12.03;11.43;;;33.60;49.20;;;;;;5049413;28;20487;-69
2022/09/04 13:19:59;;;;;;;13.57;12.77;;;34.60;47.50;;;;;;5050283;28;20470;-68
2022/09/04 13:22:36;;;;;;;12.50;11.90;;;35.20;46.20;;;;;;5049163;28;20455;-68
2022/09/04 13:25:11;;;;;;;12.70;12.20;;;35.50;46.70;;;;;;5048919;28;20484;-69
2022/09/04 13:27:49;;;;;;;12.33;11.63;;;35.00;46.30;;;;;;5048801;28;20497;-69
2022/09/04 13:30:23;;;;;;;12.70;12.10;;;35.50;45.70;;;;;;5048677;28;20458;-68
2022/09/04 13:33:08;;;;;;;11.80;11.20;;;35.60;45.70;;;;;;5049524;28;20486;-68
2022/09/04 13:35:48;;;;;;;11.93;11.33;;;34.40;45.40;;;;;;5049142;28;20499;-68
2022/09/04 13:38:36;;;;;;;12.77;11.97;;;34.50;45.30;;;;;;5082884;28;20988;-68
2022/09/04 13:41:29;;;;;;;11.40;10.80;;;34.60;45.60;;;;;;5075885;28;20878;-68
2022/09/04 13:44:24;;;;;;;11.07;10.57;;;35.10;44.80;;;;;;5076391;28;20490;-68
2022/09/04 13:47:02;;;;;;;12.30;11.80;;;35.90;44.20;;;;;;5055800;28;20954;-68
2022/09/04 13:49:37;;;;;;;13.00;12.50;;;36.70;43.20;;;;;;5071499;28;20585;-69
2022/09/04 13:52:08;;;;;;;11.60;11.10;;;36.90;42.50;;;;;;5075851;28;20846;-68
2022/09/04 13:54:39;;;;;;;12.10;11.60;;;36.90;42.00;;;;;;5076696;28;20561;-68
2022/09/04 13:57:13;;;;;;;12.17;11.57;;;37.10;42.10;;;;;;5067193;28;20906;-69